Time;durP1;ratioP1;P1;durP2;ratioP2;P2;SDS_P1;SDS_P2;PMS_P1;PMS_P2;Temp;Humidity;BMP_temperature;BMP_pressure;BME280_temperature;BME280_humidity;BME280_pressure;Samples;Min_cycle;Max_cycle;Signal;HPM_P1;HPM_P2
2022/07/20 00:00:59;;;;;;;4.15;1.40;;;;;;;22.94;43.11;99023.75;5088064;28;20027;-70
2022/07/20 00:03:24;;;;;;;3.42;1.23;;;;;;;22.93;43.04;99022.09;5088137;28;20024;-70
2022/07/20 00:05:50;;;;;;;3.80;1.40;;;;;;;22.92;42.93;99017.72;5070274;28;20025;-70
2022/07/20 00:11:19;;;;;;;3.28;1.13;;;;;;;22.88;42.97;99016.50;5076803;28;20040;-70
2022/07/20 00:13:46;;;;;;;3.60;1.27;;;;;;;22.91;42.67;99018.78;5081647;28;20015;-70
2022/07/20 00:16:11;;;;;;;2.72;1.10;;;;;;;22.91;43.03;99014.22;5081134;28;20063;-68
2022/07/20 00:18:37;;;;;;;1.70;1.00;;;;;;;22.90;42.63;99006.34;5085003;28;20153;-69
2022/07/20 00:21:02;;;;;;;1.88;1.20;;;;;;;22.90;42.71;99006.34;5071356;28;20031;-70
2022/07/20 00:23:28;;;;;;;3.15;1.30;;;;;;;22.91;42.47;99011.53;5088712;28;20032;-71
2022/07/20 00:25:53;;;;;;;2.05;1.00;;;;;;;22.89;42.53;99010.06;5088822;28;20024;-71
2022/07/20 00:28:19;;;;;;;2.30;1.10;;;;;;;22.87;42.50;99010.28;5088745;28;20012;-70
2022/07/20 00:30:46;;;;;;;2.00;1.20;;;;;;;22.83;42.69;99007.22;5088776;28;20292;-71
2022/07/20 00:33:11;;;;;;;2.78;1.50;;;;;;;22.83;42.89;99004.50;5088670;28;20028;-70
2022/07/20 00:35:36;;;;;;;2.20;1.17;;;;;;;22.80;42.52;98996.84;5088600;28;20016;-70
2022/07/20 00:38:02;;;;;;;1.85;0.80;;;;;;;22.79;42.65;99003.28;5088486;28;20020;-71
2022/07/20 00:40:27;;;;;;;3.55;1.75;;;;;;;22.77;42.79;98994.56;5088494;28;20150;-70
2022/07/20 00:42:53;;;;;;;2.58;1.20;;;;;;;22.75;42.87;98991.25;5088291;28;20093;-69
2022/07/20 00:45:18;;;;;;;2.45;0.93;;;;;;;22.75;42.73;98990.44;5088465;28;20112;-72
2022/07/20 00:47:44;;;;;;;1.63;0.95;;;;;;;22.74;42.77;98988.78;5088340;28;20016;-72
2022/07/20 00:50:10;;;;;;;4.32;1.02;;;;;;;22.72;42.62;98983.56;5088355;28;20111;-71
2022/07/20 00:52:35;;;;;;;2.33;0.82;;;;;;;22.69;42.91;98978.63;5088122;28;20028;-71
2022/07/20 00:55:01;;;;;;;1.60;0.88;;;;;;;22.69;42.63;98973.25;5088309;28;20028;-72
2022/07/20 00:57:28;;;;;;;3.22;1.10;;;;;;;22.68;42.90;98971.59;5074581;28;20021;-71
2022/07/20 00:59:54;;;;;;;3.08;1.17;;;;;;;22.65;42.97;98969.31;5067870;28;20249;-72
2022/07/20 01:02:19;;;;;;;2.45;1.10;;;;;;;22.66;42.84;98970.97;5067874;28;20021;-72
2022/07/20 01:04:45;;;;;;;1.67;0.80;;;;;;;22.65;42.62;98962.03;5068112;28;20248;-72
2022/07/20 01:07:10;;;;;;;1.60;0.90;;;;;;;22.68;42.60;98967.00;5067974;28;20027;-73
2022/07/20 01:09:36;;;;;;;1.77;0.90;;;;;;;22.70;42.58;98961.41;5068053;28;20020;-70
2022/07/20 01:12:02;;;;;;;2.28;1.08;;;;;;;22.72;42.60;98953.91;5072543;28;20032;-72
2022/07/20 01:14:27;;;;;;;4.10;1.00;;;;;;;22.69;42.73;98948.97;5087991;28;20024;-70
2022/07/20 01:16:52;;;;;;;1.45;0.93;;;;;;;22.66;42.50;98949.41;5087842;28;20028;-70
2022/07/20 01:19:18;;;;;;;1.92;1.30;;;;;;;22.62;42.61;98943.63;5087891;28;20052;-70
2022/07/20 01:21:43;;;;;;;1.10;0.80;;;;;;;22.60;42.62;98939.47;5087805;28;20035;-70
2022/07/20 01:24:11;;;;;;;1.60;0.93;;;;;;;22.58;42.82;98936.16;5087832;28;20332;-70
2022/07/20 01:26:42;;;;;;;1.50;1.00;;;;;;;22.59;42.83;98932.41;5087784;28;20012;-71
2022/07/20 01:29:10;;;;;;;1.52;1.13;;;;;;;22.60;42.81;98944.84;5087854;28;20032;-70
2022/07/20 01:31:36;;;;;;;1.50;0.90;;;;;;;22.60;42.69;98934.06;5087578;28;20052;-71
2022/07/20 01:34:02;;;;;;;3.92;0.95;;;;;;;22.60;42.72;98951.09;5087746;28;20024;-71
2022/07/20 01:36:28;;;;;;;2.03;1.00;;;;;;;22.58;42.84;98941.53;5087612;28;20051;-69
2022/07/20 01:38:53;;;;;;;3.22;1.27;;;;;;;22.51;42.92;98931.63;5087624;28;20051;-70
2022/07/20 01:41:19;;;;;;;2.67;1.02;;;;;;;22.50;42.84;98924.56;5077421;28;20060;-69
2022/07/20 01:43:45;;;;;;;2.25;1.02;;;;;;;22.48;42.83;98932.03;5067338;28;20068;-69
2022/07/20 01:46:10;;;;;;;1.85;0.88;;;;;;;22.48;42.88;98931.22;5067551;28;20021;-70
2022/07/20 01:48:36;;;;;;;2.60;0.88;;;;;;;22.51;42.79;98931.63;5067469;28;20025;-69
2022/07/20 01:51:02;;;;;;;3.08;0.90;;;;;;;22.53;42.76;98920.63;5068489;28;20029;-70
2022/07/20 01:53:27;;;;;;;1.80;0.80;;;;;;;22.49;42.82;98919.41;5087429;28;20060;-70
2022/07/20 01:55:53;;;;;;;1.77;0.93;;;;;;;22.48;42.85;98909.66;5087539;28;20096;-69
2022/07/20 01:58:20;;;;;;;2.22;1.08;;;;;;;22.51;43.00;98914.59;5087318;28;20028;-70
2022/07/20 02:00:46;;;;;;;2.03;0.90;;;;;;;22.53;42.77;98905.28;5087482;28;20149;-69
2022/07/20 02:03:11;;;;;;;2.65;1.00;;;;;;;22.51;42.94;98893.88;5087357;28;20039;-71
2022/07/20 02:05:37;;;;;;;1.98;0.90;;;;;;;22.49;42.88;98892.44;5087350;28;20041;-69
2022/07/20 02:08:02;;;;;;;3.60;1.15;;;;;;;22.51;42.94;98874.16;5087359;28;20028;-70
2022/07/20 02:10:28;;;;;;;2.15;1.10;;;;;;;22.47;42.78;98879.16;5091025;28;20225;-70
2022/07/20 02:12:54;;;;;;;1.95;1.13;;;;;;;22.43;43.02;98880.63;5091362;28;20141;-70
2022/07/20 02:18:08;;;;;;;3.90;1.30;;;;;;;22.49;42.92;98877.09;5091236;28;20247;-69
2022/07/20 02:20:34;;;;;;;1.15;0.80;;;;;;;22.51;43.01;98875.00;5091202;28;20040;-71
2022/07/20 02:23:01;;;;;;;2.65;1.17;;;;;;;22.53;42.82;98869.41;5091183;28;20012;-69
2022/07/20 02:25:27;;;;;;;3.78;1.00;;;;;;;22.57;42.71;98867.94;5091174;28;20021;-70
2022/07/20 02:27:52;;;;;;;2.83;0.80;;;;;;;22.63;42.82;98871.63;5091075;28;20024;-71
2022/07/20 02:30:18;;;;;;;5.05;1.20;;;;;;;22.66;42.93;98873.91;5084539;28;20137;-71
2022/07/20 02:32:44;;;;;;;2.65;1.15;;;;;;;22.65;42.94;98867.66;5070936;28;20141;-70
2022/07/20 02:35:09;;;;;;;2.97;1.40;;;;;;;22.64;42.99;98859.81;5070974;28;20035;-69
2022/07/20 02:37:35;;;;;;;1.42;0.82;;;;;;;22.61;42.82;98858.38;5070784;28;20021;-70
2022/07/20 02:40:00;;;;;;;2.88;0.95;;;;;;;22.60;42.91;98847.78;5070887;28;20039;-70
2022/07/20 02:42:25;;;;;;;2.97;1.10;;;;;;;22.62;42.84;98846.56;5070597;28;20188;-71
2022/07/20 02:44:51;;;;;;;3.78;1.00;;;;;;;22.63;42.77;98842.81;5070741;28;20025;-69
2022/07/20 02:47:16;;;;;;;2.28;0.90;;;;;;;22.64;42.78;98844.47;5070670;28;20085;-70
2022/07/20 02:49:42;;;;;;;2.88;0.90;;;;;;;22.67;43.00;98845.91;5070666;28;20078;-71
2022/07/20 02:52:07;;;;;;;2.70;0.85;;;;;;;22.69;42.98;98841.13;5080693;28;20032;-70
2022/07/20 02:54:33;;;;;;;5.95;1.45;;;;;;;22.70;42.90;98830.09;5090629;28;20259;-71
2022/07/20 02:56:58;;;;;;;2.00;1.00;;;;;;;22.71;42.77;98825.53;5090433;28;20028;-72
2022/07/20 02:59:24;;;;;;;3.30;0.80;;;;;;;22.76;42.88;98820.31;5090792;28;20020;-70
2022/07/20 03:01:51;;;;;;;1.48;0.75;;;;;;;22.78;42.59;98823.63;5090431;28;20208;-70
2022/07/20 03:04:16;;;;;;;3.75;1.15;;;;;;;22.82;42.78;98818.59;5090705;28;20218;-71
2022/07/20 03:06:42;;;;;;;3.83;0.90;;;;;;;22.83;42.72;98812.16;5090327;28;20024;-70
2022/07/20 03:09:07;;;;;;;2.88;0.90;;;;;;;22.83;42.76;98804.06;5090423;28;20252;-70
2022/07/20 03:11:33;;;;;;;5.20;1.65;;;;;;;22.83;42.77;98810.31;5090355;28;20025;-70
2022/07/20 03:13:58;;;;;;;2.08;0.88;;;;;;;22.83;42.96;98802.22;5090222;28;20047;-71
2022/07/20 03:16:24;;;;;;;1.85;0.73;;;;;;;22.85;42.91;98800.13;5090159;28;20028;-71
2022/07/20 03:18:49;;;;;;;1.02;0.73;;;;;;;22.85;42.94;98802.00;5089920;28;20024;-71
2022/07/20 03:21:14;;;;;;;1.25;0.82;;;;;;;22.83;43.05;98795.97;5052336;28;20273;-72
2022/07/20 03:23:43;;;;;;;1.60;0.90;;;;;;;22.85;43.28;98800.13;5069969;28;20123;-71
2022/07/20 03:26:08;;;;;;;3.70;1.38;;;;;;;22.84;43.16;98801.19;5070011;28;20246;-70
2022/07/20 03:28:34;;;;;;;1.48;1.08;;;;;;;22.80;43.24;98801.81;5069902;28;20017;-71
2022/07/20 03:30:59;;;;;;;5.82;1.02;;;;;;;22.77;43.33;98800.38;5069943;28;20028;-70
2022/07/20 03:33:25;;;;;;;3.88;1.77;;;;;;;22.74;43.46;98808.09;5069749;28;20050;-71
2022/07/20 03:35:50;;;;;;;1.60;0.73;;;;;;;22.75;43.37;98807.88;5069790;28;20041;-70
2022/07/20 03:38:16;;;;;;;1.50;0.85;;;;;;;22.76;43.49;98804.13;5083665;28;20020;-70
2022/07/20 03:40:41;;;;;;;2.25;1.00;;;;;;;22.77;43.73;98803.09;5089724;28;20020;-70
2022/07/20 03:43:07;;;;;;;0.90;0.70;;;;;;;22.73;43.64;98806.44;5089606;28;20048;-70
2022/07/20 03:45:32;;;;;;;2.58;0.75;;;;;;;22.68;43.73;98799.81;5089710;28;20229;-70
2022/07/20 03:47:58;;;;;;;2.70;0.55;;;;;;;22.66;43.39;98790.31;5089639;28;20028;-70
2022/07/20 03:50:24;;;;;;;1.73;1.00;;;;;;;22.67;43.55;98792.78;5089620;28;20043;-71
2022/07/20 03:52:50;;;;;;;2.95;1.20;;;;;;;22.65;43.69;98785.97;5089290;28;20054;-70
2022/07/20 03:55:15;;;;;;;2.42;0.95;;;;;;;22.67;43.66;98795.47;5089518;28;20024;-71
2022/07/20 03:57:41;;;;;;;2.67;0.95;;;;;;;22.70;43.33;98795.03;5089341;28;20050;-70
2022/07/20 04:00:07;;;;;;;1.50;0.80;;;;;;;22.73;43.32;98796.47;5089441;28;20024;-70
2022/07/20 04:02:33;;;;;;;1.15;0.80;;;;;;;22.72;43.24;98786.72;5089293;28;20016;-71
2022/07/20 04:04:58;;;;;;;2.33;0.90;;;;;;;22.72;43.34;98792.13;5089343;28;20020;-71
2022/07/20 04:07:23;;;;;;;1.95;0.80;;;;;;;22.70;43.23;98788.84;5089238;28;20020;-71
2022/07/20 04:09:49;;;;;;;1.48;0.90;;;;;;;22.67;43.38;98776.59;5089180;28;20087;-70
2022/07/20 04:12:20;;;;;;;2.25;0.95;;;;;;;22.67;43.35;98781.19;5089110;28;20032;-71
2022/07/20 04:14:47;;;;;;;2.92;0.68;;;;;;;22.64;43.66;98776.22;5089170;28;20020;-70
2022/07/20 04:17:13;;;;;;;1.83;0.70;;;;;;;22.61;43.61;98773.94;5088967;28;20229;-71
2022/07/20 04:19:39;;;;;;;6.03;1.17;;;;;;;22.54;44.49;98765.91;5089075;28;20039;-71
2022/07/20 04:22:05;;;;;;;2.33;1.10;;;;;;;22.53;44.58;98767.78;5088941;28;20055;-70
2022/07/20 04:24:30;;;;;;;2.50;1.10;;;;;;;22.52;44.67;98755.34;5088896;28;20054;-71
2022/07/20 04:26:56;;;;;;;0.80;0.47;;;;;;;22.48;44.41;98764.91;5088812;28;20221;-70
2022/07/20 04:29:22;;;;;;;1.48;1.05;;;;;;;22.50;44.76;98759.31;5088776;28;20150;-69
2022/07/20 04:31:48;;;;;;;1.50;1.00;;;;;;;22.51;44.67;98745.63;5087389;28;20036;-71
2022/07/20 04:34:13;;;;;;;2.40;0.95;;;;;;;22.51;44.47;98742.91;5088702;28;20025;-70
2022/07/20 04:36:39;;;;;;;2.15;0.88;;;;;;;22.51;44.61;98747.47;5088548;28;20091;-72
2022/07/20 04:39:04;;;;;;;1.80;0.80;;;;;;;22.48;44.48;98737.97;5088593;28;20021;-70
2022/07/20 04:41:30;;;;;;;2.38;1.23;;;;;;;22.46;44.84;98723.88;5077619;28;20194;-71
2022/07/20 04:43:56;;;;;;;2.70;0.80;;;;;;;22.48;44.66;98731.75;5068535;28;20079;-69
2022/07/20 04:46:21;;;;;;;1.17;0.88;;;;;;;22.47;44.96;98730.91;5068412;28;20025;-68
2022/07/20 04:48:47;;;;;;;3.58;0.85;;;;;;;22.49;44.77;98718.06;5068331;28;20241;-70
2022/07/20 04:51:12;;;;;;;1.75;0.80;;;;;;;22.53;45.30;98713.03;5070859;28;22043;-70
2022/07/20 04:53:37;;;;;;;1.40;1.00;;;;;;;22.53;44.99;98700.41;5088251;28;20054;-69
2022/07/20 04:56:03;;;;;;;1.52;0.82;;;;;;;22.52;45.02;98704.13;5088312;28;20046;-70
2022/07/20 04:58:32;;;;;;;2.88;1.15;;;;;;;22.53;45.38;98708.50;5088093;28;20155;-71
2022/07/20 05:00:58;;;;;;;2.65;1.20;;;;;;;22.53;45.16;98716.56;5088145;28;20089;-70
2022/07/20 05:03:23;;;;;;;2.60;1.10;;;;;;;22.54;45.27;98715.53;5088042;28;20024;-71
2022/07/20 05:05:49;;;;;;;2.08;1.10;;;;;;;22.50;45.16;98710.81;5088081;28;20055;-71
2022/07/20 05:08:14;;;;;;;2.58;1.02;;;;;;;22.51;45.28;98713.28;5088016;28;20214;-69
2022/07/20 05:10:42;;;;;;;5.35;2.45;;;;;;;22.51;45.61;98723.22;5088079;28;20094;-71
2022/07/20 05:13:08;;;;;;;1.75;0.60;;;;;;;22.45;45.79;98719.53;5087905;28;20083;-72
2022/07/20 05:15:34;;;;;;;1.63;1.00;;;;;;;22.43;45.72;98718.91;5087992;28;20233;-69
2022/07/20 05:17:59;;;;;;;2.08;1.25;;;;;;;22.42;45.98;98727.22;5087733;28;20054;-73
2022/07/20 05:20:25;;;;;;;3.15;1.00;;;;;;;22.36;46.02;98718.94;5087717;28;20016;-69
2022/07/20 05:22:50;;;;;;;4.15;1.80;;;;;;;22.37;46.24;98719.78;5087741;28;20082;-70
2022/07/20 05:25:16;;;;;;;1.30;0.80;;;;;;;22.40;46.00;98716.66;5087836;28;20225;-72
2022/07/20 05:27:41;;;;;;;3.33;0.90;;;;;;;22.39;45.54;98715.00;5087726;28;20070;-71
2022/07/20 05:30:07;;;;;;;1.83;0.73;;;;;;;22.38;45.64;98713.34;5087771;28;20028;-71
2022/07/20 05:32:33;;;;;;;2.30;0.80;;;;;;;22.37;45.92;98709.00;5087646;28;20031;-72
2022/07/20 05:34:58;;;;;;;2.88;0.80;;;;;;;22.34;45.81;98694.09;5087631;28;20028;-71
2022/07/20 05:37:23;;;;;;;1.92;0.95;;;;;;;22.34;45.84;98694.09;5081575;28;20135;-71
2022/07/20 05:39:49;;;;;;;2.45;0.95;;;;;;;22.33;45.71;98680.81;5067566;28;20035;-69
2022/07/20 05:42:14;;;;;;;1.45;0.60;;;;;;;22.31;46.02;98670.28;5067278;28;20244;-71
2022/07/20 05:44:40;;;;;;;1.52;0.80;;;;;;;22.31;45.92;98664.88;5067831;28;20020;-69
2022/07/20 05:47:09;;;;;;;4.57;1.23;;;;;;;22.30;45.99;98662.38;5067501;28;20024;-71
2022/07/20 05:49:36;;;;;;;4.25;1.00;;;;;;;22.29;46.19;98658.03;5067440;28;20021;-70
2022/07/20 05:52:02;;;;;;;1.80;0.82;;;;;;;22.29;46.03;98652.66;5076668;28;20043;-70
2022/07/20 05:54:28;;;;;;;2.53;1.00;;;;;;;22.29;46.51;98658.03;5087509;28;20036;-72
2022/07/20 05:56:53;;;;;;;1.77;0.90;;;;;;;22.25;46.63;98647.72;5087360;28;20024;-71
2022/07/20 05:59:19;;;;;;;2.08;1.10;;;;;;;22.27;46.37;98649.38;5087447;28;20031;-72
2022/07/20 06:01:45;;;;;;;2.90;0.93;;;;;;;22.24;46.32;98646.06;5087427;28;20020;-71
2022/07/20 06:04:14;;;;;;;1.95;0.80;;;;;;;22.25;46.45;98636.94;5087432;28;20030;-70
2022/07/20 06:06:40;;;;;;;3.90;1.08;;;;;;;22.27;46.30;98622.44;5087324;28;20032;-71
2022/07/20 06:09:06;;;;;;;4.90;1.00;;;;;;;22.30;46.27;98611.19;5087317;28;20020;-71
2022/07/20 06:11:33;;;;;;;3.33;1.05;;;;;;;22.32;46.25;98609.94;5087341;28;20118;-70
2022/07/20 06:13:58;;;;;;;2.13;0.95;;;;;;;22.30;46.83;98595.03;5087267;28;20028;-71
2022/07/20 06:16:24;;;;;;;1.55;0.80;;;;;;;22.28;46.50;98600.63;5087206;28;20024;-71
2022/07/20 06:18:49;;;;;;;2.78;0.80;;;;;;;22.25;46.65;98599.22;5087230;28;20020;-70
2022/07/20 06:21:15;;;;;;;1.88;1.13;;;;;;;22.26;46.42;98589.25;5087317;28;20032;-69
2022/07/20 06:23:41;;;;;;;2.25;0.90;;;;;;;22.26;46.64;98594.66;5087122;28;20036;-69
2022/07/20 06:26:07;;;;;;;1.27;0.73;;;;;;;22.31;47.05;98593.97;5087214;28;20035;-70
2022/07/20 06:28:33;;;;;;;4.13;0.90;;;;;;;22.29;46.75;98594.22;5087160;28;20020;-71
2022/07/20 06:30:58;;;;;;;1.95;0.93;;;;;;;22.31;46.79;98585.88;5087092;28;20035;-70
2022/07/20 06:33:25;;;;;;;1.42;0.82;;;;;;;22.33;47.17;98581.94;5087093;28;20025;-70
2022/07/20 06:35:50;;;;;;;2.92;1.00;;;;;;;22.36;46.84;98588.75;5087159;28;20039;-71
2022/07/20 06:38:16;;;;;;;1.85;0.85;;;;;;;22.34;46.64;98578.22;5074088;28;20122;-70
2022/07/20 06:40:42;;;;;;;3.00;1.15;;;;;;;22.37;46.69;98587.72;5066857;28;20025;-70
2022/07/20 06:43:07;;;;;;;1.83;0.77;;;;;;;22.37;47.12;98585.03;5066769;28;20102;-70
2022/07/20 06:45:33;;;;;;;1.08;0.70;;;;;;;22.40;46.94;98582.69;5066921;28;20028;-72
2022/07/20 06:47:58;;;;;;;0.95;0.65;;;;;;;22.44;46.75;98582.28;5066715;28;20028;-71
2022/07/20 06:50:24;;;;;;;2.67;0.80;;;;;;;22.46;46.78;98583.72;5066830;28;20044;-70
2022/07/20 06:52:49;;;;;;;1.40;0.90;;;;;;;22.49;46.75;98585.97;5082846;28;20032;-70
2022/07/20 06:55:15;;;;;;;1.88;0.88;;;;;;;22.52;47.00;98582.00;5088428;28;20225;-69
2022/07/20 06:57:40;;;;;;;1.75;0.90;;;;;;;22.51;47.01;98575.78;5090430;28;20025;-71
2022/07/20 07:00:07;;;;;;;1.45;0.90;;;;;;;22.52;46.97;98582.00;5090543;28;20258;-69
2022/07/20 07:02:33;;;;;;;3.03;0.60;;;;;;;22.52;46.93;98582.00;5090660;28;20221;-72
2022/07/20 07:04:58;;;;;;;1.40;0.93;;;;;;;22.54;47.08;98578.06;5090437;28;20028;-71
2022/07/20 07:07:24;;;;;;;1.83;0.68;;;;;;;22.53;47.28;98579.09;5090348;28;20021;-72
2022/07/20 07:09:49;;;;;;;3.90;0.70;;;;;;;22.57;46.92;98567.88;5090373;28;20100;-70
2022/07/20 07:12:15;;;;;;;3.00;0.60;;;;;;;22.57;46.79;98560.59;5090289;28;20240;-71
2022/07/20 07:14:40;;;;;;;1.60;0.68;;;;;;;22.63;46.75;98561.56;5090301;28;20024;-73
2022/07/20 07:17:06;;;;;;;2.67;1.27;;;;;;;22.70;46.56;98555.06;5090107;28;20100;-71
2022/07/20 07:19:31;;;;;;;1.40;0.80;;;;;;;22.76;46.68;98549.81;5089978;28;20016;-73
2022/07/20 07:21:57;;;;;;;2.50;1.00;;;;;;;22.81;47.10;98553.50;5089973;28;20088;-71
2022/07/20 07:24:22;;;;;;;1.92;1.05;;;;;;;22.85;46.70;98543.06;5090060;28;20083;-72
2022/07/20 07:26:48;;;;;;;4.78;0.90;;;;;;;22.90;46.62;98534.28;5089802;28;20016;-70
2022/07/20 07:29:14;;;;;;;1.73;1.00;;;;;;;22.92;46.67;98538.44;5090005;28;20024;-73
2022/07/20 07:31:40;;;;;;;2.90;0.80;;;;;;;22.93;46.65;98528.47;5089805;28;20237;-71
2022/07/20 07:34:06;;;;;;;1.52;0.80;;;;;;;22.96;46.55;98528.81;5072225;28;20024;-71
2022/07/20 07:36:31;;;;;;;2.10;1.13;;;;;;;22.96;46.55;98528.00;5089774;28;20073;-71
2022/07/20 07:38:57;;;;;;;2.70;1.10;;;;;;;22.99;46.61;98527.56;5089700;28;20242;-70
2022/07/20 07:41:22;;;;;;;1.50;0.80;;;;;;;22.97;46.60;98513.47;5089765;28;20020;-71
2022/07/20 07:43:48;;;;;;;2.13;0.85;;;;;;;23.04;46.57;98510.69;5089464;28;20032;-69
2022/07/20 07:46:13;;;;;;;1.30;0.70;;;;;;;23.07;46.62;98508.34;5089749;28;20024;-73
2022/07/20 07:48:39;;;;;;;2.63;0.70;;;;;;;23.11;46.53;98509.56;5089611;28;20025;-73
2022/07/20 07:51:04;;;;;;;2.00;0.70;;;;;;;23.14;46.65;98495.63;5089504;28;20225;-72
2022/07/20 07:53:30;;;;;;;1.17;0.55;;;;;;;23.15;46.62;98494.56;5089512;28;20050;-71
2022/07/20 07:55:55;;;;;;;1.20;0.75;;;;;;;23.16;46.64;98493.47;5089473;28;20024;-69
2022/07/20 07:58:21;;;;;;;0.90;0.40;;;;;;;23.18;46.29;98490.56;5071728;28;20024;-72
2022/07/20 08:00:47;;;;;;;1.20;0.82;;;;;;;23.21;46.05;98492.84;5089457;28;20095;-72
2022/07/20 08:03:12;;;;;;;1.13;0.60;;;;;;;23.22;46.05;98481.00;5089330;28;20020;-73
2022/07/20 08:05:38;;;;;;;1.13;0.38;;;;;;;23.21;45.96;98476.66;5088921;28;20226;-72
2022/07/20 08:08:22;;;;;;;5.28;0.60;;;;;;;23.23;46.04;98471.03;5088432;28;20099;-70
2022/07/20 08:10:47;;;;;;;1.33;0.68;;;;;;;23.21;45.92;98478.53;5089216;28;20036;-70
2022/07/20 08:13:13;;;;;;;1.20;0.50;;;;;;;23.25;45.88;98471.63;5089129;28;20119;-72
2022/07/20 08:15:39;;;;;;;0.85;0.55;;;;;;;23.27;46.11;98469.50;5089149;28;20031;-71
2022/07/20 08:18:05;;;;;;;0.95;0.40;;;;;;;23.34;46.02;98469.41;5088983;28;20123;-71
2022/07/20 08:20:31;;;;;;;1.90;0.60;;;;;;;23.36;46.25;98470.81;5088932;28;20048;-70
2022/07/20 08:22:56;;;;;;;0.90;0.50;;;;;;;23.37;46.27;98467.06;5088925;28;20039;-69
2022/07/20 08:25:22;;;;;;;1.20;0.60;;;;;;;23.39;45.80;98456.88;5088933;28;20245;-70
2022/07/20 08:27:49;;;;;;;0.82;0.52;;;;;;;23.42;46.18;98456.41;5088792;28;20096;-69
2022/07/20 08:30:15;;;;;;;1.10;0.60;;;;;;;23.42;45.92;98451.00;5083445;28;20063;-69
2022/07/20 08:32:40;;;;;;;0.98;0.40;;;;;;;23.42;46.05;98448.31;5068678;28;20028;-70
2022/07/20 08:35:07;;;;;;;0.98;0.22;;;;;;;23.43;45.53;98452.66;5068741;28;20055;-70
2022/07/20 08:37:32;;;;;;;0.80;0.55;;;;;;;23.45;45.50;98455.13;5075722;28;20024;-70
2022/07/20 08:39:58;;;;;;;0.65;0.30;;;;;;;23.44;45.61;98443.50;5088655;28;20267;-69
2022/07/20 08:42:24;;;;;;;0.80;0.43;;;;;;;23.46;45.65;98454.88;5088219;28;20032;-71
2022/07/20 08:44:49;;;;;;;0.55;0.40;;;;;;;23.47;45.37;98448.41;5088478;28;20086;-71
2022/07/20 08:47:16;;;;;;;3.53;0.68;;;;;;;23.51;45.88;98447.97;5088407;28;20024;-71
2022/07/20 08:49:46;;;;;;;2.35;0.80;;;;;;;23.53;45.59;98454.78;5088446;28;20224;-70
2022/07/20 08:52:12;;;;;;;0.60;0.40;;;;;;;23.52;45.57;98450.44;5088236;28;20024;-73
2022/07/20 08:54:38;;;;;;;2.08;0.70;;;;;;;23.56;45.76;98454.31;5088396;28;20043;-69
2022/07/20 08:57:15;;;;;;;0.63;0.30;;;;;;;23.59;45.14;98450.34;5088446;28;20149;-70
2022/07/20 08:59:41;;;;;;;1.38;0.55;;;;;;;23.60;45.14;98457.41;5088253;28;20028;-70
2022/07/20 09:02:08;;;;;;;0.80;0.50;;;;;;;23.62;45.16;98452.56;5087170;28;20028;-71
2022/07/20 09:04:55;;;;;;;0.60;0.35;;;;;;;23.62;45.22;98445.28;5085765;28;20024;-69
2022/07/20 09:07:44;;;;;;;0.93;0.50;;;;;;;23.65;45.29;98453.97;5084126;28;20032;-70
2022/07/20 09:10:18;;;;;;;1.00;0.52;;;;;;;23.65;44.97;98457.50;5088013;28;20146;-68
2022/07/20 09:12:48;;;;;;;0.73;0.68;;;;;;;23.62;45.08;98445.28;5087846;28;20217;-70
2022/07/20 09:15:40;;;;;;;1.43;0.50;;;;;;;23.65;44.97;98452.09;5088400;28;20028;-70
2022/07/20 09:18:11;;;;;;;1.33;0.50;;;;;;;23.64;44.90;98450.44;5086954;28;20502;-70
2022/07/20 09:20:39;;;;;;;5.32;0.88;;;;;;;23.62;44.77;98455.25;5084496;28;20028;-69
2022/07/20 09:23:17;;;;;;;5.40;1.23;;;;;;;23.61;45.08;98453.59;5084728;28;20091;-68
2022/07/20 09:25:58;;;;;;;0.82;0.47;;;;;;;23.61;44.72;98459.00;5086417;28;20088;-74
2022/07/20 09:28:50;;;;;;;3.90;0.70;;;;;;;23.61;44.68;98461.72;5085331;28;20073;-70
2022/07/20 09:31:15;;;;;;;1.52;0.60;;;;;;;23.61;44.72;98454.44;5076477;28;20028;-71
2022/07/20 09:34:12;;;;;;;0.75;0.50;;;;;;;23.58;44.68;98456.78;5084561;28;20292;-71
2022/07/20 09:36:43;;;;;;;4.40;1.70;;;;;;;23.55;44.54;98449.97;5085210;28;20082;-70
2022/07/20 09:39:22;;;;;;;3.17;1.23;;;;;;;23.52;44.66;98439.66;5082547;28;20279;-72
2022/07/20 09:41:56;;;;;;;2.50;1.40;;;;;;;23.51;44.52;98442.56;5087162;28;20047;-70
2022/07/20 09:44:27;;;;;;;4.13;1.10;;;;;;;23.54;44.33;98440.22;5087423;28;20031;-70
2022/07/20 09:46:53;;;;;;;;;;;;;;;23.47;44.79;98440.31;5087837;28;20260;-69
2022/07/20 09:49:21;;;;;;;3.63;1.65;;;;;;;23.48;44.80;98435.75;5086412;28;19896;-71
2022/07/20 09:51:56;;;;;;;2.83;1.27;;;;;;;23.50;44.96;98435.53;5087216;28;20016;-72
2022/07/20 09:54:22;;;;;;;2.10;1.10;;;;;;;23.50;44.83;98427.41;5087346;28;20028;-73
2022/07/20 09:56:50;;;;;;;2.88;1.05;;;;;;;23.52;45.06;98419.91;5085675;28;20079;-74
2022/07/20 09:59:17;;;;;;;1.42;0.90;;;;;;;23.52;45.02;98419.91;5085349;28;20032;-70
2022/07/20 10:01:49;;;;;;;3.90;1.27;;;;;;;23.58;45.25;98416.28;5085508;28;20032;-73
2022/07/20 10:04:16;;;;;;;4.60;1.13;;;;;;;23.61;45.28;98415.81;5085388;28;20047;-70
2022/07/20 10:06:45;;;;;;;2.05;0.90;;;;;;;23.66;44.92;98405.13;5082166;28;20036;-72
2022/07/20 10:09:14;;;;;;;1.92;0.73;;;;;;;23.70;44.82;98410.88;5076295;28;20036;-73
2022/07/20 10:11:40;;;;;;;2.33;0.88;;;;;;;23.60;44.41;98412.31;5083937;28;20038;-72
2022/07/20 10:14:06;;;;;;;4.72;0.90;;;;;;;23.46;44.42;98408.97;5085996;28;20020;-73
2022/07/20 10:16:44;;;;;;;6.70;1.00;;;;;;;23.43;44.43;98417.56;5084496;28;20073;-71
2022/07/20 10:19:10;;;;;;;5.68;0.77;;;;;;;23.40;44.65;98415.34;5086620;28;20029;-71
2022/07/20 10:21:46;;;;;;;2.03;0.60;;;;;;;23.40;44.12;98411.78;5084782;28;20099;-69
2022/07/20 10:24:31;;;;;;;1.73;0.55;;;;;;;23.36;44.28;98403.34;5087188;28;20036;-73
2022/07/20 10:27:16;;;;;;;1.67;0.45;;;;;;;23.34;44.68;98396.53;5069692;28;20082;-74
2022/07/20 10:29:54;;;;;;;1.10;0.80;;;;;;;23.33;44.69;98393.00;5086861;28;20028;-75
2022/07/20 10:32:30;;;;;;;2.88;0.60;;;;;;;23.35;43.93;98390.09;5070952;28;20021;-73
2022/07/20 10:35:01;;;;;;;1.52;0.40;;;;;;;23.40;43.33;98384.81;5071044;28;20020;-73
2022/07/20 10:37:29;;;;;;;;;;;;;;;23.37;43.33;98380.69;5077373;28;20020;-74
2022/07/20 10:40:11;;;;;;;24.75;13.05;;;;;;;23.39;43.36;98364.25;5090997;28;19897;-73
2022/07/20 10:42:52;;;;;;;35.83;19.10;;;;;;;23.38;43.49;98366.16;5070629;28;20056;-74
2022/07/20 10:45:22;;;;;;;20.65;12.75;;;;;;;23.36;43.06;98368.25;5070812;28;20180;-74
2022/07/20 10:47:57;;;;;;;18.33;11.27;;;;;;;23.35;43.23;98363.91;5070724;28;20040;-74
2022/07/20 10:50:24;;;;;;;6.07;4.07;;;;;;;23.32;42.85;98369.78;5070714;28;20079;-72
2022/07/20 10:52:53;;;;;;;8.90;4.68;;;;;;;23.28;42.37;98358.63;5070435;28;20100;-72
2022/07/20 10:55:34;;;;;;;3.97;2.25;;;;;;;23.28;41.73;98357.81;5070569;28;20021;-74
2022/07/20 10:58:05;;;;;;;4.00;2.55;;;;;;;23.28;42.16;98358.63;5070445;28;20099;-73
2022/07/20 11:00:35;;;;;;;;;;;;;;;23.24;42.23;98352.03;5070948;28;20035;-74
2022/07/20 11:03:12;;;;;;;2.90;1.27;;;;;;;23.31;41.56;98358.16;5070379;28;19908;-74
2022/07/20 11:05:38;;;;;;;4.18;2.25;;;;;;;23.40;41.72;98355.09;5070282;28;20090;-75
2022/07/20 11:08:08;;;;;;;13.18;3.33;;;;;;;23.41;41.83;98354.06;5070284;28;20096;-74
2022/07/20 11:10:34;;;;;;;21.83;4.60;;;;;;;23.37;41.78;98345.63;5070326;28;20033;-75
2022/07/20 11:13:05;;;;;;;22.88;6.63;;;;;;;23.35;42.01;98350.41;5070186;28;20041;-74
2022/07/20 11:15:43;;;;;;;17.95;5.07;;;;;;;23.35;41.86;98352.31;5070268;28;20028;-74
2022/07/20 11:18:12;;;;;;;10.43;3.70;;;;;;;23.27;41.92;98345.38;5070085;28;20027;-73
2022/07/20 11:20:45;;;;;;;11.65;3.75;;;;;;;23.36;41.78;98354.75;5069983;28;20027;-73
2022/07/20 11:23:13;;;;;;;12.35;2.40;;;;;;;23.35;41.82;98355.00;5070032;28;20041;-73
2022/07/20 11:25:47;;;;;;;7.20;2.00;;;;;;;23.33;41.51;98349.81;5070029;28;20013;-72
2022/07/20 11:28:12;;;;;;;8.43;2.20;;;;;;;23.33;41.26;98349.81;5069967;28;20013;-73
2022/07/20 11:30:39;;;;;;;3.88;1.38;;;;;;;23.34;40.73;98350.66;5070004;28;20025;-74
2022/07/20 11:33:04;;;;;;;1.15;0.50;;;;;;;23.35;40.36;98361.22;5069877;28;20036;-74
2022/07/20 11:35:30;;;;;;;1.40;0.50;;;;;;;23.40;39.89;98357.81;5069915;28;20048;-73
2022/07/20 11:37:55;;;;;;;2.05;0.63;;;;;;;23.47;40.25;98362.03;5079890;28;20227;-71
2022/07/20 11:40:22;;;;;;;1.25;0.50;;;;;;;23.49;39.94;98367.22;5089476;28;20020;-74